Time;durP1;ratioP1;P1;durP2;ratioP2;P2;SDS_P1;SDS_P2;PMS_P1;PMS_P2;Temp;Humidity;BMP_temperature;BMP_pressure;BME280_temperature;BME280_humidity;BME280_pressure;Samples;Min_cycle;Max_cycle;Signal;HPM_P1;HPM_P2
2023/12/08 00:41:27;;;;;;;;;;;;;;;;;;;;;
2023/12/08 01:37:20;;;;;;;155.68;57.97;;;;;;;;;;6247744;23;20019;-92
2023/12/08 01:58:14;;;;;;;66.45;26.35;;;;;;;;;;6217442;22;20449;-94
2023/12/08 02:01:05;;;;;;;77.53;27.70;;;;;;;;;;6220784;23;20019;-94
2023/12/08 05:42:16;;;;;;;125.90;39.97;;;;;;;;;;6241851;22;20282;31
2023/12/08 06:55:02;;;;;;;101.70;32.35;;;;;;;;;;6287141;22;20452;-94
2023/12/08 07:06:31;;;;;;;;;;;;;;;;;;;;;
2023/12/08 07:09:14;;;;;;;127.45;34.38;;;;;;;;;;6251720;23;20020;-93
2023/12/08 07:11:49;;;;;;;92.78;32.45;;;;;;;;;;6227030;23;20028;-96
2023/12/08 07:20:41;;;;;;;119.88;36.38;;;;;;;;;;6244780;22;20059;-96
2023/12/08 07:23:08;;;;;;;92.00;33.85;;;;;;;;;;6195841;23;20434;-94
2023/12/08 07:25:40;;;;;;;165.13;38.22;;;;;;;;;;6198564;23;20005;-96
2023/12/08 07:28:07;;;;;;;136.47;34.00;;;;;;;;;;6197548;23;20043;-95
2023/12/08 07:30:49;;;;;;;171.75;37.67;;;;;;;;;;6199794;23;20135;-96
2023/12/08 07:33:16;;;;;;;139.38;35.70;;;;;;;;;;6232526;23;20030;-92
2023/12/08 07:35:45;;;;;;;163.23;34.22;;;;;;;;;;6200103;23;20001;-96
2023/12/08 07:38:15;;;;;;;128.55;36.25;;;;;;;;;;6180701;23;20039;-93
2023/12/08 07:40:45;;;;;;;79.75;32.10;;;;;;;;;;6204804;23;20005;-93
2023/12/08 07:43:27;;;;;;;108.68;36.45;;;;;;;;;;6205163;23;20011;-96
2023/12/08 07:45:53;;;;;;;90.80;35.20;;;;;;;;;;6221910;22;20031;-95
2023/12/08 07:52:10;;;;;;;97.38;34.45;;;;;;;;;;6290646;22;20011;-96
2023/12/08 07:54:48;;;;;;;;;;;;;;;;;;;;;
2023/12/08 07:57:35;;;;;;;116.00;33.97;;;;;;;;;;6285784;22;20030;-96
2023/12/08 08:00:01;;;;;;;111.93;36.05;;;;;;;;;;6281840;22;20039;-90
2023/12/08 08:02:28;;;;;;;97.60;33.22;;;;;;;;;;6284942;22;20054;-91
2023/12/08 08:04:57;;;;;;;112.43;34.28;;;;;;;;;;6278890;22;20008;-96
2023/12/08 08:07:23;;;;;;;95.38;33.22;;;;;;;;;;6279875;22;20008;-96
2023/12/08 08:09:49;;;;;;;96.68;36.00;;;;;;;;;;6280536;22;20079;-91
2023/12/08 08:12:19;;;;;;;101.65;36.53;;;;;;;;;;6280026;22;19999;-92
2023/12/08 08:14:45;;;;;;;122.95;34.78;;;;;;;;;;6280758;22;20008;-93
2023/12/08 08:17:11;;;;;;;140.65;41.03;;;;;;;;;;6294539;22;20070;-89
2023/12/08 08:19:37;;;;;;;144.98;39.92;;;;;;;;;;6293342;22;20020;-94
2023/12/08 08:22:56;;;;;;;127.95;38.45;;;;;;;;;;6284315;22;20022;-96
2023/12/08 08:25:17;;;;;;;126.00;39.13;;;;;;;;;;6280304;22;20035;-96
2023/12/08 08:28:02;;;;;;;110.78;36.35;;;;;;;;;;6283570;22;20008;-94
2023/12/08 08:30:28;;;;;;;133.95;39.70;;;;;;;;;;6292542;22;20034;-91
2023/12/08 08:32:54;;;;;;;150.63;39.28;;;;;;;;;;6287130;22;20027;-96
2023/12/08 08:35:24;;;;;;;127.63;38.15;;;;;;;;;;6279922;22;20014;-96
2023/12/08 08:37:50;;;;;;;138.52;40.38;;;;;;;;;;6279138;22;20008;-93
2023/12/08 08:40:16;;;;;;;117.53;40.03;;;;;;;;;;6278575;22;20004;-95
2023/12/08 08:42:42;;;;;;;113.45;38.45;;;;;;;;;;6278586;22;20000;-95
2023/12/08 08:45:09;;;;;;;101.88;36.78;;;;;;;;;;6278810;22;20008;-95
2023/12/08 08:47:35;;;;;;;102.45;37.05;;;;;;;;;;6277111;22;20016;-92
2023/12/08 08:50:01;;;;;;;111.53;37.05;;;;;;;;;;6278013;22;20004;-91
2023/12/08 08:52:29;;;;;;;92.07;35.33;;;;;;;;;;6278460;22;20333;-93
2023/12/08 08:54:55;;;;;;;88.68;33.95;;;;;;;;;;6278845;22;20007;-95
2023/12/08 08:57:23;;;;;;;96.85;35.90;;;;;;;;;;6278409;22;20007;-92
2023/12/08 08:59:58;;;;;;;94.05;35.60;;;;;;;;;;6280551;22;20016;-95
2023/12/08 09:02:24;;;;;;;99.53;37.13;;;;;;;;;;6263016;22;20429;-92
2023/12/08 09:04:53;;;;;;;88.43;34.63;;;;;;;;;;6277823;22;20337;-95
2023/12/08 09:07:20;;;;;;;92.80;36.92;;;;;;;;;;6253484;22;20007;-95
2023/12/08 09:09:46;;;;;;;83.43;33.13;;;;;;;;;;6279210;22;20035;-94
2023/12/08 09:12:19;;;;;;;84.75;34.55;;;;;;;;;;6278533;22;20051;-95
2023/12/08 09:14:45;;;;;;;81.85;32.97;;;;;;;;;;6278801;22;20444;-93
2023/12/08 09:17:11;;;;;;;76.28;30.52;;;;;;;;;;6277331;22;20106;-95
2023/12/08 09:19:37;;;;;;;66.60;31.40;;;;;;;;;;6277691;22;20007;-91
2023/12/08 09:25:19;;;;;;;78.15;31.80;;;;;;;;;;6280439;22;20000;-95
2023/12/08 09:27:45;;;;;;;61.00;28.80;;;;;;;;;;6280114;22;20007;-94
2023/12/08 09:30:12;;;;;;;62.05;27.83;;;;;;;;;;6278238;22;20007;-92
2023/12/08 09:32:38;;;;;;;66.63;29.02;;;;;;;;;;6278447;22;20004;-90
2023/12/08 09:35:04;;;;;;;62.60;28.65;;;;;;;;;;6278064;22;20008;-93
2023/12/08 09:37:33;;;;;;;53.33;26.15;;;;;;;;;;6271364;22;20032;-96
2023/12/08 09:49:17;;;;;;;58.80;28.25;;;;;;;;;;6248987;22;20493;-96
2023/12/08 09:51:50;;;;;;;55.78;27.85;;;;;;;;;;6079609;23;20006;-95
2023/12/08 09:54:16;;;;;;;58.88;26.83;;;;;;;;;;6076053;23;20090;-95
2023/12/08 10:00:17;;;;;;;56.75;26.98;;;;;;;;;;6109875;23;20005;-95
2023/12/08 10:02:43;;;;;;;63.47;28.10;;;;;;;;;;6107331;23;20014;-94
2023/12/08 10:07:56;;;;;;;54.47;25.75;;;;;;;;;;6189326;22;20432;-92
2023/12/08 10:10:24;;;;;;;52.63;25.75;;;;;;;;;;6222072;23;20015;-95
2023/12/08 10:12:59;;;;;;;48.97;23.88;;;;;;;;;;6220509;23;20018;-90
2023/12/08 10:18:49;;;;;;;52.58;24.77;;;;;;;;;;6068080;23;20384;-95
2023/12/08 10:21:16;;;;;;;52.50;24.70;;;;;;;;;;6169586;23;20003;-93
2023/12/08 10:30:02;;;;;;;54.45;26.45;;;;;;;;;;6099066;23;20006;-96
2023/12/08 10:38:31;;;;;;;50.20;24.63;;;;;;;;;;6235786;22;20434;-94
2023/12/08 10:40:58;;;;;;;51.58;26.40;;;;;;;;;;6220874;23;20452;-95
2023/12/08 10:43:27;;;;;;;47.92;24.25;;;;;;;;;;6221651;23;20429;-94
2023/12/08 11:09:46;;;;;;;39.80;22.00;;;;;;;;;;6260035;22;20161;-96
2023/12/08 11:12:41;;;;;;;36.72;19.58;;;;;;;;;;6242128;22;20015;-96
2023/12/08 11:15:24;;;;;;;42.25;20.80;;;;;;;;;;6282031;22;19999;-94
2023/12/08 11:17:50;;;;;;;42.08;20.27;;;;;;;;;;6280976;22;20410;-92
2023/12/08 11:23:24;;;;;;;38.08;18.90;;;;;;;;;;6284228;22;20067;-92
2023/12/08 11:28:34;;;;;;;38.83;20.60;;;;;;;;;;6220303;22;20028;-92
2023/12/08 11:34:55;;;;;;;40.75;20.88;;;;;;;;;;6125937;23;20483;-91
2023/12/08 11:43:30;;;;;;;44.73;20.60;;;;;;;;;;6031880;23;20146;-94
2023/12/08 11:45:56;;;;;;;42.10;20.02;;;;;;;;;;6099821;23;20069;-89
2023/12/08 11:48:25;;;;;;;47.45;22.23;;;;;;;;;;6113640;23;20446;-95
2023/12/08 11:50:51;;;;;;;42.08;21.90;;;;;;;;;;6101786;23;20090;-91
2023/12/08 11:53:28;;;;;;;39.28;20.40;;;;;;;;;;6096174;23;20002;-95
2023/12/08 11:55:55;;;;;;;40.03;21.70;;;;;;;;;;6096166;23;20313;-91
2023/12/08 11:58:34;;;;;;;43.00;20.98;;;;;;;;;;6197554;23;20000;-96
2023/12/08 12:01:15;;;;;;;42.10;21.30;;;;;;;;;;6220267;23;20078;-96
2023/12/08 12:03:41;;;;;;;39.13;20.00;;;;;;;;;;6220262;23;20444;-92
2023/12/08 12:06:27;;;;;;;40.97;21.50;;;;;;;;;;6220566;23;20012;-94
2023/12/08 12:08:53;;;;;;;36.38;19.45;;;;;;;;;;6222383;23;20011;-91
2023/12/08 12:11:24;;;;;;;38.78;19.52;;;;;;;;;;6220205;23;20081;-91
2023/12/08 12:13:55;;;;;;;39.85;21.02;;;;;;;;;;6220013;23;20426;-92
2023/12/08 12:16:24;;;;;;;40.55;20.60;;;;;;;;;;6221417;23;20008;-91
2023/12/08 12:18:54;;;;;;;37.45;19.85;;;;;;;;;;6222346;23;20070;-92
2023/12/08 12:21:20;;;;;;;37.45;19.30;;;;;;;;;;6222110;23;20004;-91
2023/12/08 12:23:46;;;;;;;35.25;18.60;;;;;;;;;;6223295;23;20006;-92
2023/12/08 12:26:18;;;;;;;34.92;19.33;;;;;;;;;;6223165;23;20008;-93
2023/12/08 12:28:53;;;;;;;41.30;18.88;;;;;;;;;;6221962;23;20088;-94
2023/12/08 12:31:22;;;;;;;34.95;18.63;;;;;;;;;;6222753;23;20016;-91
2023/12/08 12:34:08;;;;;;;36.63;19.02;;;;;;;;;;6222328;23;20420;-93
2023/12/08 12:36:34;;;;;;;32.58;18.80;;;;;;;;;;6222174;23;20004;-90
2023/12/08 12:39:01;;;;;;;35.22;19.00;;;;;;;;;;6222103;23;20437;-92
2023/12/08 12:41:27;;;;;;;38.08;19.95;;;;;;;;;;6222151;23;20426;-93
2023/12/08 12:43:57;;;;;;;38.45;20.58;;;;;;;;;;6222202;23;20042;-91
2023/12/08 12:46:25;;;;;;;39.80;21.08;;;;;;;;;;6222180;23;20004;-89
2023/12/08 12:48:58;;;;;;;37.90;20.38;;;;;;;;;;6222711;23;20019;-96
2023/12/08 12:51:43;;;;;;;37.92;20.02;;;;;;;;;;6222765;23;20413;-92
2023/12/08 12:54:15;;;;;;;34.78;18.75;;;;;;;;;;6222032;23;20027;-93
2023/12/08 12:59:50;;;;;;;35.00;19.52;;;;;;;;;;6232949;23;20016;-92
2023/12/08 13:02:16;;;;;;;38.85;20.38;;;;;;;;;;6222529;23;20334;-93
2023/12/08 13:04:42;;;;;;;39.33;21.05;;;;;;;;;;6222059;23;20008;-91
2023/12/08 13:07:14;;;;;;;36.03;19.45;;;;;;;;;;6221459;23;20004;-96
2023/12/08 13:09:40;;;;;;;33.72;18.95;;;;;;;;;;6225210;23;20008;-90
2023/12/08 13:12:07;;;;;;;36.28;18.88;;;;;;;;;;6229607;23;20428;-89
2023/12/08 13:14:33;;;;;;;35.33;19.83;;;;;;;;;;6221725;23;20011;-90
2023/12/08 13:16:59;;;;;;;33.65;18.42;;;;;;;;;;6221997;23;20011;-90
2023/12/08 13:19:25;;;;;;;34.30;19.15;;;;;;;;;;6222797;23;20039;-89
2023/12/08 13:21:51;;;;;;;34.55;19.33;;;;;;;;;;6221489;23;20015;-90
2023/12/08 13:24:17;;;;;;;35.38;19.20;;;;;;;;;;6221401;23;20004;-91
2023/12/08 13:26:46;;;;;;;32.15;18.52;;;;;;;;;;6222101;23;20004;-92
2023/12/08 13:29:46;;;;;;;33.72;18.85;;;;;;;;;;6218489;23;20020;-95
2023/12/08 13:32:32;;;;;;;36.17;20.83;;;;;;;;;;6205164;23;20031;-96
2023/12/08 13:34:58;;;;;;;34.58;17.95;;;;;;;;;;6255846;23;20016;-92
2023/12/08 13:37:28;;;;;;;35.30;18.88;;;;;;;;;;6244089;23;20004;-93
2023/12/08 13:39:54;;;;;;;33.22;17.73;;;;;;;;;;6242617;23;20017;-91
2023/12/08 13:42:20;;;;;;;32.13;18.48;;;;;;;;;;6242323;23;20040;-91
2023/12/08 13:44:46;;;;;;;30.80;18.20;;;;;;;;;;6241689;23;20092;-90
2023/12/08 13:47:12;;;;;;;32.45;18.00;;;;;;;;;;6241278;23;20091;-90
2023/12/08 13:49:38;;;;;;;31.27;17.15;;;;;;;;;;6241453;23;20039;-91
2023/12/08 13:52:04;;;;;;;30.45;17.77;;;;;;;;;;6241581;23;20007;-90
2023/12/08 13:54:31;;;;;;;32.00;18.67;;;;;;;;;;6241607;23;20032;-91
2023/12/08 13:56:57;;;;;;;36.63;19.15;;;;;;;;;;6241862;23;20001;-93
2023/12/08 13:59:23;;;;;;;34.53;19.40;;;;;;;;;;6241502;23;20013;-93
2023/12/08 14:01:49;;;;;;;33.30;18.65;;;;;;;;;;6241609;23;20005;-92
2023/12/08 14:04:18;;;;;;;35.63;19.55;;;;;;;;;;6241021;23;20032;-92
2023/12/08 14:06:48;;;;;;;34.88;18.73;;;;;;;;;;6242171;23;20032;-91
2023/12/08 14:09:26;;;;;;;38.17;19.42;;;;;;;;;;6241801;23;20423;-91
2023/12/08 14:11:52;;;;;;;31.92;17.95;;;;;;;;;;6242817;23;20011;-91
2023/12/08 14:14:48;;;;;;;32.97;19.02;;;;;;;;;;6242164;23;20419;-96
2023/12/08 14:17:15;;;;;;;34.50;19.05;;;;;;;;;;6243490;23;20338;-93
2023/12/08 14:20:04;;;;;;;37.15;19.27;;;;;;;;;;6221442;23;20461;-94
2023/12/08 14:22:39;;;;;;;35.60;19.42;;;;;;;;;;6246301;23;20019;-92
2023/12/08 14:28:21;;;;;;;36.20;20.30;;;;;;;;;;6217152;23;20015;-91
2023/12/08 14:30:50;;;;;;;36.70;20.13;;;;;;;;;;6240782;23;20021;-93
2023/12/08 14:33:17;;;;;;;37.53;19.88;;;;;;;;;;6241765;23;20127;-93
2023/12/08 14:35:46;;;;;;;40.47;21.67;;;;;;;;;;6241360;23;20448;-94
2023/12/08 14:38:15;;;;;;;51.58;24.10;;;;;;;;;;6241876;23;20012;-91
2023/12/08 14:40:41;;;;;;;45.78;23.63;;;;;;;;;;6241309;23;20058;-96
2023/12/08 14:43:18;;;;;;;48.58;22.88;;;;;;;;;;6241490;23;20419;-95
2023/12/08 14:45:44;;;;;;;38.80;21.60;;;;;;;;;;6242310;23;20032;-92
2023/12/08 14:48:10;;;;;;;47.58;23.95;;;;;;;;;;6242893;23;20429;-92
2023/12/08 14:50:40;;;;;;;57.17;27.65;;;;;;;;;;6241276;23;20398;-93
2023/12/08 14:53:10;;;;;;;51.90;25.05;;;;;;;;;;6240875;23;20011;-94
2023/12/08 14:55:36;;;;;;;57.83;25.55;;;;;;;;;;6241371;23;20585;-92
2023/12/08 14:58:03;;;;;;;76.15;28.90;;;;;;;;;;6240727;23;20062;-92
2023/12/08 15:00:29;;;;;;;65.78;27.88;;;;;;;;;;6240250;23;20012;-93
2023/12/08 15:02:56;;;;;;;63.03;28.55;;;;;;;;;;6241168;23;20392;-92
2023/12/08 15:05:28;;;;;;;85.22;31.63;;;;;;;;;;6241237;23;20071;-91
2023/12/08 15:07:54;;;;;;;65.28;28.55;;;;;;;;;;6240676;23;20008;-96
2023/12/08 15:10:37;;;;;;;51.83;25.33;;;;;;;;;;6217767;23;20009;-96
2023/12/08 15:13:09;;;;;;;39.80;21.65;;;;;;;;;;6248936;23;20026;-95
2023/12/08 15:16:04;;;;;;;39.60;20.98;;;;;;;;;;6247397;23;20009;-94
2023/12/08 15:18:29;;;;;;;38.72;20.42;;;;;;;;;;6225739;22;20027;-91
2023/12/08 15:20:59;;;;;;;37.65;19.95;;;;;;;;;;6231837;23;20046;-90
2023/12/08 15:23:39;;;;;;;35.72;19.88;;;;;;;;;;6223384;23;20004;-95
2023/12/08 15:26:05;;;;;;;37.00;19.83;;;;;;;;;;6219572;23;20485;-91
2023/12/08 15:28:31;;;;;;;38.20;20.92;;;;;;;;;;6220435;23;20000;-91
2023/12/08 15:31:03;;;;;;;35.20;19.83;;;;;;;;;;6220816;23;20467;-90
2023/12/08 15:33:31;;;;;;;37.28;21.33;;;;;;;;;;6220725;23;20011;-94
2023/12/08 15:36:02;;;;;;;39.90;21.73;;;;;;;;;;6226517;23;20445;-93
2023/12/08 15:38:28;;;;;;;36.35;20.17;;;;;;;;;;6218581;23;20009;-92
2023/12/08 15:40:54;;;;;;;34.88;20.25;;;;;;;;;;6219907;23;20015;-91
2023/12/08 15:43:23;;;;;;;37.78;20.58;;;;;;;;;;6220811;23;20000;-94
2023/12/08 15:48:59;;;;;;;36.53;18.73;;;;;;;;;;6247052;23;20011;-92
2023/12/08 15:51:28;;;;;;;35.03;18.77;;;;;;;;;;6224234;23;20011;-93
2023/12/08 15:54:02;;;;;;;34.10;19.17;;;;;;;;;;6223950;23;20092;-92
2023/12/08 15:56:36;;;;;;;35.20;18.52;;;;;;;;;;6223562;23;20015;-92
2023/12/08 15:59:06;;;;;;;38.00;20.75;;;;;;;;;;6221866;23;20358;-94
2023/12/08 16:01:38;;;;;;;37.40;20.75;;;;;;;;;;6222585;23;20008;-91
2023/12/08 16:04:43;;;;;;;38.33;20.15;;;;;;;;;;6222312;23;20046;-94
2023/12/08 16:07:11;;;;;;;36.03;18.85;;;;;;;;;;6248375;23;20004;-95
2023/12/08 16:09:41;;;;;;;40.67;19.98;;;;;;;;;;6222292;23;20027;-94
2023/12/08 16:12:08;;;;;;;34.67;19.58;;;;;;;;;;6222775;23;20012;-94
2023/12/08 16:14:50;;;;;;;;;;;;;;;;;;;;;
2023/12/08 16:17:21;;;;;;;38.13;19.77;;;;;;;;;;6248900;23;20083;-93
2023/12/08 16:19:51;;;;;;;40.08;21.77;;;;;;;;;;6226452;22;20100;-91
2023/12/08 16:22:17;;;;;;;37.80;20.70;;;;;;;;;;6253766;23;20027;-93
2023/12/08 16:24:45;;;;;;;40.70;22.00;;;;;;;;;;6247246;23;20016;-93
2023/12/08 16:27:17;;;;;;;36.83;20.25;;;;;;;;;;6247588;23;20005;-92
2023/12/08 16:29:44;;;;;;;41.13;20.45;;;;;;;;;;6247920;23;20028;-92
2023/12/08 16:32:38;;;;;;;37.95;20.45;;;;;;;;;;6238518;23;20167;-92
2023/12/08 16:35:11;;;;;;;;;;;;;;;;;;6097072;23;20070;-91
2023/12/08 16:37:58;;;;;;;38.20;19.38;;;;;;;;;;6065228;23;19905;-92
2023/12/08 16:40:33;;;;;;;37.40;20.70;;;;;;;;;;6096987;23;20010;-94
2023/12/08 16:42:59;;;;;;;42.08;21.50;;;;;;;;;;6097712;23;20006;-92
2023/12/08 16:45:28;;;;;;;41.75;22.00;;;;;;;;;;6097115;23;20006;-91
2023/12/08 16:51:24;;;;;;;45.67;23.30;;;;;;;;;;6096934;23;20021;-91
2023/12/08 16:53:50;;;;;;;43.83;23.05;;;;;;;;;;6185250;23;20040;-93
2023/12/08 16:56:16;;;;;;;47.17;25.48;;;;;;;;;;6160573;23;20012;-91
2023/12/08 16:58:47;;;;;;;44.17;23.02;;;;;;;;;;6160371;23;20091;-90
2023/12/08 17:01:13;;;;;;;45.15;23.23;;;;;;;;;;6159929;23;20032;-91
2023/12/08 17:03:39;;;;;;;45.92;23.42;;;;;;;;;;6160275;23;20005;-92
2023/12/08 17:06:11;;;;;;;48.70;24.38;;;;;;;;;;6191180;23;20015;-93
2023/12/08 17:16:29;;;;;;;48.75;25.40;;;;;;;;;;6218817;23;20020;-96
2023/12/08 17:18:55;;;;;;;47.70;25.83;;;;;;;;;;6192203;23;20008;-93
2023/12/08 17:21:22;;;;;;;52.50;25.80;;;;;;;;;;6194140;23;20461;-92
2023/12/08 17:23:51;;;;;;;47.25;23.73;;;;;;;;;;6192220;23;20012;-95
2023/12/08 17:26:17;;;;;;;47.83;23.98;;;;;;;;;;6191231;23;20434;-92
2023/12/08 17:28:43;;;;;;;53.00;25.67;;;;;;;;;;6191766;23;20025;-94
2023/12/08 17:31:10;;;;;;;52.67;26.38;;;;;;;;;;6191376;23;20008;-92
2023/12/08 17:33:36;;;;;;;51.45;26.83;;;;;;;;;;6191075;23;20009;-93
2023/12/08 17:36:03;;;;;;;55.35;27.60;;;;;;;;;;6191584;23;20132;-93
2023/12/08 17:38:29;;;;;;;52.35;26.25;;;;;;;;;;6191353;23;20493;-92
2023/12/08 17:40:55;;;;;;;50.75;27.00;;;;;;;;;;6191950;23;20087;-94
2023/12/08 17:43:23;;;;;;;59.65;28.40;;;;;;;;;;6191721;23;20004;-94
2023/12/08 17:45:49;;;;;;;57.72;28.42;;;;;;;;;;6191246;23;20008;-93
2023/12/08 17:48:15;;;;;;;58.40;27.42;;;;;;;;;;6191539;23;20046;-91
2023/12/08 17:50:41;;;;;;;59.75;28.48;;;;;;;;;;6201600;23;20063;-92
2023/12/08 17:53:07;;;;;;;55.75;29.10;;;;;;;;;;6199317;23;20004;-91
2023/12/08 17:55:33;;;;;;;59.08;29.63;;;;;;;;;;6191644;23;20064;-92
2023/12/08 17:57:59;;;;;;;59.35;29.50;;;;;;;;;;6191447;23;20096;-94
2023/12/08 18:00:25;;;;;;;57.85;29.20;;;;;;;;;;6191303;23;20016;-93
2023/12/08 18:02:54;;;;;;;60.00;28.85;;;;;;;;;;6190542;23;20004;-92
2023/12/08 18:05:24;;;;;;;58.60;28.65;;;;;;;;;;6191226;23;20450;-95
2023/12/08 18:07:50;;;;;;;55.40;27.55;;;;;;;;;;6192459;23;20009;-96
2023/12/08 18:10:21;;;;;;;57.05;27.15;;;;;;;;;;6193648;23;20035;-96
2023/12/08 18:12:48;;;;;;;54.90;27.20;;;;;;;;;;6219842;23;20075;-95
2023/12/08 18:15:16;;;;;;;59.67;28.52;;;;;;;;;;6203724;23;20036;-96
2023/12/08 18:17:42;;;;;;;57.67;27.58;;;;;;;;;;6218536;23;20004;-96
2023/12/08 18:20:32;;;;;;;59.63;28.63;;;;;;;;;;6244143;23;20091;-96
2023/12/08 18:22:58;;;;;;;52.80;26.42;;;;;;;;;;6243000;23;20039;-94
2023/12/08 18:25:26;;;;;;;55.65;28.27;;;;;;;;;;6241060;23;20004;-94
2023/12/08 18:27:52;;;;;;;57.35;27.17;;;;;;;;;;6241089;23;20009;-91
2023/12/08 18:30:18;;;;;;;54.55;27.33;;;;;;;;;;6241227;23;20062;-92
2023/12/08 18:32:45;;;;;;;57.80;28.17;;;;;;;;;;6241099;23;20084;-93
2023/12/08 18:35:34;;;;;;;55.05;27.80;;;;;;;;;;6242967;23;20043;-95
2023/12/08 18:41:06;;;;;;;;;;;;;;;;;;;;;
2023/12/08 18:44:00;;;;;;;57.10;27.60;;;;;;;;;;6282218;22;20082;-93
2023/12/08 18:46:36;;;;;;;57.22;27.63;;;;;;;;;;6257213;22;20030;-95
2023/12/08 18:49:06;;;;;;;70.20;30.25;;;;;;;;;;6250979;22;20360;-92
2023/12/08 18:54:05;;;;;;;65.47;30.33;;;;;;;;;;6187281;23;20451;-94
2023/12/08 18:56:37;;;;;;;68.35;30.80;;;;;;;;;;6160765;23;20013;-92
2023/12/08 18:59:23;;;;;;;61.33;29.00;;;;;;;;;;6161300;23;20013;-92
2023/12/08 19:01:50;;;;;;;60.70;29.55;;;;;;;;;;6161410;23;20012;-92
2023/12/08 19:04:34;;;;;;;68.25;31.67;;;;;;;;;;6137326;23;20020;-95
2023/12/08 19:07:10;;;;;;;69.30;31.83;;;;;;;;;;6188718;23;20438;-93
2023/12/08 19:09:37;;;;;;;74.35;34.47;;;;;;;;;;6162854;23;20091;-94
2023/12/08 19:12:03;;;;;;;82.13;35.58;;;;;;;;;;6162633;23;20005;-93
2023/12/08 19:14:46;;;;;;;82.55;34.03;;;;;;;;;;6190169;23;20005;-93
2023/12/08 19:17:24;;;;;;;82.85;35.22;;;;;;;;;;6167488;23;20001;-95
2023/12/08 19:20:24;;;;;;;94.65;36.67;;;;;;;;;;6162534;23;20023;-94
2023/12/08 19:22:54;;;;;;;74.72;34.20;;;;;;;;;;6163200;23;20016;-96
2023/12/08 19:25:26;;;;;;;80.82;35.85;;;;;;;;;;6152175;23;19997;-93
2023/12/08 19:28:02;;;;;;;74.07;33.17;;;;;;;;;;6176968;23;20058;-94
2023/12/08 19:30:28;;;;;;;86.70;38.22;;;;;;;;;;6163681;23;20009;-95
2023/12/08 19:32:57;;;;;;;97.28;40.00;;;;;;;;;;6161339;23;20001;-93
2023/12/08 19:35:34;;;;;;;96.93;40.45;;;;;;;;;;6161123;23;20016;-95
2023/12/08 19:38:03;;;;;;;97.57;39.65;;;;;;;;;;6213706;22;20027;-91
2023/12/08 19:40:29;;;;;;;89.15;37.88;;;;;;;;;;6250529;23;20008;-93
2023/12/08 19:43:01;;;;;;;106.40;41.70;;;;;;;;;;6245868;23;20004;-93
2023/12/08 19:45:27;;;;;;;103.78;41.03;;;;;;;;;;6245730;23;20008;-92
2023/12/08 19:47:56;;;;;;;102.57;41.85;;;;;;;;;;6245619;23;20090;-92
2023/12/08 19:50:31;;;;;;;88.75;36.47;;;;;;;;;;6245768;23;20004;-92
2023/12/08 19:52:57;;;;;;;83.65;35.97;;;;;;;;;;6245326;23;20379;-95
2023/12/08 19:55:37;;;;;;;;;;;;;;;;;;;;;
2023/12/08 19:58:03;;;;;;;102.80;41.53;;;;;;;;;;6262785;22;20115;-93
2023/12/08 20:00:29;;;;;;;98.80;40.63;;;;;;;;;;6252952;22;20398;-95
2023/12/08 20:02:55;;;;;;;102.93;40.05;;;;;;;;;;6251115;22;20004;-95
2023/12/08 20:05:21;;;;;;;108.85;41.40;;;;;;;;;;6251472;22;20000;-94
2023/12/08 20:07:51;;;;;;;107.85;41.50;;;;;;;;;;6250896;22;20007;-92
2023/12/08 20:10:26;;;;;;;102.95;39.92;;;;;;;;;;6251136;22;19999;-95
2023/12/08 20:12:59;;;;;;;98.63;41.13;;;;;;;;;;6249636;22;20014;-94
2023/12/08 20:15:47;;;;;;;;;;;;;;;;;;;;;
2023/12/08 20:21:25;;;;;;;111.18;41.97;;;;;;;;;;6266040;22;20412;-95
2023/12/08 20:23:53;;;;;;;117.53;43.80;;;;;;;;;;6251060;22;20405;-94
2023/12/08 20:26:31;;;;;;;;;;;;;;;;;;;;;
2023/12/08 20:29:01;;;;;;;111.50;41.63;;;;;;;;;;6278168;22;20099;-93
2023/12/08 20:31:50;;;;;;;127.47;43.78;;;;;;;;;;6251010;22;20007;-94
2023/12/08 20:41:16;;;;;;;128.43;44.97;;;;;;;;;;6279492;22;20113;-93
2023/12/08 20:44:10;;;;;;;126.57;46.53;;;;;;;;;;6186899;23;20005;-96
2023/12/08 20:47:23;;;;;;;141.10;51.78;;;;;;;;;;6186350;23;20005;-95
2023/12/08 20:49:53;;;;;;;144.38;54.90;;;;;;;;;;6127398;23;20002;-95
2023/12/08 20:52:53;;;;;;;147.15;58.25;;;;;;;;;;6126029;23;20009;-92
2023/12/08 20:55:19;;;;;;;137.23;53.08;;;;;;;;;;6148578;23;20060;-94
2023/12/08 20:57:52;;;;;;;137.70;51.78;;;;;;;;;;6131548;23;20112;-94
2023/12/08 21:03:21;;;;;;;118.47;46.53;;;;;;;;;;6156288;23;20081;-96
2023/12/08 21:05:48;;;;;;;136.70;47.63;;;;;;;;;;6131365;23;20497;-91
2023/12/08 21:08:28;;;;;;;118.43;45.70;;;;;;;;;;6131452;23;20001;-93
2023/12/08 21:10:57;;;;;;;122.18;47.13;;;;;;;;;;6131714;23;20033;-92
2023/12/08 21:13:23;;;;;;;116.13;44.35;;;;;;;;;;6131781;23;20009;-92
2023/12/08 21:15:49;;;;;;;133.45;47.45;;;;;;;;;;6131607;23;20005;-92
2023/12/08 21:18:18;;;;;;;122.47;48.17;;;;;;;;;;6131519;23;20010;-94
2023/12/08 21:21:01;;;;;;;115.85;47.45;;;;;;;;;;6235593;22;20069;-92
2023/12/08 21:23:28;;;;;;;112.13;45.00;;;;;;;;;;6273646;22;20061;-89
2023/12/08 21:26:00;;;;;;;89.57;37.70;;;;;;;;;;6259774;22;20460;-92
2023/12/08 21:28:37;;;;;;;114.07;42.95;;;;;;;;;;6252336;22;20011;-92
2023/12/08 21:31:13;;;;;;;86.75;38.85;;;;;;;;;;6254143;22;20050;-94
2023/12/08 21:33:42;;;;;;;103.18;38.42;;;;;;;;;;6252220;22;20004;-92
2023/12/08 21:36:11;;;;;;;89.03;35.67;;;;;;;;;;6251673;22;20004;-92
2023/12/08 21:38:48;;;;;;;88.43;36.28;;;;;;;;;;6251626;22;20011;-92
2023/12/08 21:41:18;;;;;;;71.80;33.55;;;;;;;;;;6251639;22;20011;-94
2023/12/08 21:43:44;;;;;;;74.45;32.63;;;;;;;;;;6252117;22;20000;-93
2023/12/08 21:46:10;;;;;;;69.35;29.45;;;;;;;;;;6251806;22;20014;-92
2023/12/08 21:48:39;;;;;;;70.10;28.92;;;;;;;;;;6251346;22;20440;-94
2023/12/08 21:51:05;;;;;;;64.13;28.48;;;;;;;;;;6251657;22;20014;-94
2023/12/08 21:53:42;;;;;;;65.57;28.67;;;;;;;;;;6252189;22;20003;-95
2023/12/08 21:56:08;;;;;;;64.53;30.02;;;;;;;;;;6251600;22;20003;-94
2023/12/08 21:58:37;;;;;;;59.65;28.08;;;;;;;;;;6246439;22;20023;-95
2023/12/08 22:01:03;;;;;;;61.60;27.92;;;;;;;;;;6246427;23;20083;-92
2023/12/08 22:03:29;;;;;;;62.05;28.75;;;;;;;;;;6246208;23;20004;-95
2023/12/08 22:05:56;;;;;;;67.05;29.95;;;;;;;;;;6246568;23;20437;-93
2023/12/08 22:08:32;;;;;;;72.38;31.77;;;;;;;;;;6247070;23;20000;-95
2023/12/08 22:11:04;;;;;;;62.90;28.58;;;;;;;;;;6246463;23;20038;-94
2023/12/08 22:13:30;;;;;;;62.17;27.35;;;;;;;;;;6246535;23;20087;-94
2023/12/08 22:15:56;;;;;;;63.35;28.92;;;;;;;;;;6246154;23;20448;-93
2023/12/08 22:18:22;;;;;;;65.03;28.45;;;;;;;;;;6246222;23;20004;-92
2023/12/08 22:20:48;;;;;;;55.97;27.92;;;;;;;;;;6248308;23;20004;-93
2023/12/08 22:23:15;;;;;;;68.50;29.55;;;;;;;;;;6247494;23;20455;-93
2023/12/08 22:25:41;;;;;;;54.17;25.63;;;;;;;;;;6248264;23;20004;-94
2023/12/08 22:28:10;;;;;;;61.00;28.27;;;;;;;;;;6249292;23;19997;-95
2023/12/08 22:30:36;;;;;;;60.15;27.58;;;;;;;;;;6267081;23;20007;-93
2023/12/08 22:33:05;;;;;;;52.55;25.38;;;;;;;;;;6249173;23;20015;-94
2023/12/08 22:35:31;;;;;;;53.63;26.13;;;;;;;;;;6246687;23;20031;-91
2023/12/08 22:38:01;;;;;;;51.45;25.92;;;;;;;;;;6246829;23;20333;-92
2023/12/08 22:40:27;;;;;;;57.75;28.33;;;;;;;;;;6246287;23;20038;-93
2023/12/08 22:42:53;;;;;;;55.05;25.98;;;;;;;;;;6246140;23;20422;-91
2023/12/08 22:45:22;;;;;;;46.90;24.15;;;;;;;;;;6246319;23;20389;-93
2023/12/08 22:47:54;;;;;;;53.80;25.00;;;;;;;;;;6247154;23;20079;-95
2023/12/08 22:50:21;;;;;;;51.30;24.27;;;;;;;;;;6246364;23;20004;-94
2023/12/08 22:52:47;;;;;;;52.40;25.02;;;;;;;;;;6246118;23;20001;-93
2023/12/08 22:55:13;;;;;;;53.40;23.90;;;;;;;;;;6246597;23;20004;-94
2023/12/08 22:57:39;;;;;;;52.03;24.80;;;;;;;;;;6246345;22;20016;-92
2023/12/08 23:00:12;;;;;;;50.53;23.48;;;;;;;;;;6246535;23;20015;-93
2023/12/08 23:02:39;;;;;;;51.90;24.10;;;;;;;;;;6246848;23;20004;-93
2023/12/08 23:05:08;;;;;;;49.85;24.75;;;;;;;;;;6256194;23;20034;-89
2023/12/08 23:07:37;;;;;;;49.22;23.30;;;;;;;;;;6258395;22;20004;-94
2023/12/08 23:10:10;;;;;;;49.60;24.02;;;;;;;;;;6248087;23;20004;-94
2023/12/08 23:12:36;;;;;;;46.75;24.17;;;;;;;;;;6246948;23;20437;-93
2023/12/08 23:15:03;;;;;;;48.05;23.17;;;;;;;;;;6246054;23;20008;-95
2023/12/08 23:17:35;;;;;;;52.10;24.42;;;;;;;;;;6245920;23;20036;-93
2023/12/08 23:20:08;;;;;;;46.35;23.58;;;;;;;;;;6245878;23;20081;-96
2023/12/08 23:22:34;;;;;;;47.55;23.40;;;;;;;;;;6245954;23;20094;-92
2023/12/08 23:25:00;;;;;;;57.33;29.30;;;;;;;;;;6245801;23;20004;-92
2023/12/08 23:27:26;;;;;;;47.55;23.08;;;;;;;;;;6245702;23;20036;-94
2023/12/08 23:29:55;;;;;;;45.42;23.50;;;;;;;;;;6245562;23;20009;-95
2023/12/08 23:32:27;;;;;;;46.75;24.45;;;;;;;;;;6245785;23;20427;-94
2023/12/08 23:34:53;;;;;;;52.90;24.85;;;;;;;;;;6246301;23;20031;-93
2023/12/08 23:37:25;;;;;;;47.20;23.67;;;;;;;;;;6245739;23;20443;-95